• Join FlightAware (Why Join?)
  • Login
  • US Flag 
08:00AM EDT


 

Airport Tracker/Info


-or-


 

Live Flight TrackerFlight Track Log ✈ LXJ549 ✈ 14-Jul-2013 ✈ KBED - KPWM

Flight Track Log - Related Links

Times and Time Zones

All times are in EDT time to prevent confusion due to time zone crossing. See the LXJ549 flight status page for this flight to view local times or setup timezone preferences in your user account.

Time Position Orientation Groundspeed Altitude Reporting Facility
EDT Latitude Longitude Course Direction KTS MPH feet Rate Location/Type
03:20PM 42.4667 -71.3000 294° West 152 175 1,400  Level KA90
03:21PM 42.4833 -71.3500 294° West 195 224 2,900 1,860 Climbing KA90
03:22PM 42.5333 -71.3167 26° Northeast 233 268 4,500 2,820 Climbing KA90
03:23PM 42.6000 -71.2500 36° Northeast 284 327 8,600 2,220 Climbing KA90
03:24PM 42.6667 -71.2000 29° Northeast 290 334 9,000 180 Climbing KA90
03:25PM 42.7333 -71.1333 36° Northeast 286 329 9,000  Level KA90
03:26PM 42.8000 -71.0833 29° Northeast 286 329 9,000  Level KA90
03:27PM 42.8667 -71.0167 36° Northeast 284 327 9,000  Level KA90
03:28PM 42.9333 -70.9500 36° Northeast 291 335 9,000  Level KA90
03:29PM 42.9833 -70.8667 51° Northeast 296 341 9,000  Level KA90
03:30PM 43.0667 -70.8167 24° Northeast 293 337 9,000  Level KA90
03:32PM 43.1572 -70.7745 23° Northeast  Level FlightAware Approximate
03:39PM 43.5369 -70.4297 36° Northeast  Level FlightAware Approximate
03:40PM 43.5890 -70.3740 50° Northeast  Level FlightAware Approximate
03:41PM 43.6311 -70.3037 50° Northeast  Level FlightAware Approximate
03:42PM 43.6333 -70.3000 50° Northeast  Level FlightAware Approximate
03:43PM 43.6456 -70.3086 50° Northeast  Level Estimated
03:44PM 43.6456 -70.3086 50° Northeast  Level Estimated
03:45PM 43.6456 -70.3086 50° Northeast  Level Estimated
03:46PM 43.6456 -70.3086 50° Northeast  Level Estimated
03:47PM 43.6456 -70.3086 50° Northeast  Level Estimated
03:48PM 43.6456 -70.3086 50° Northeast  Level Estimated
03:49PM 43.6456 -70.3086 50° Northeast  Level Estimated